Time;durP1;ratioP1;P1;durP2;ratioP2;P2;SDS_P1;SDS_P2;PMS_P1;PMS_P2;Temp;Humidity;BMP_temperature;BMP_pressure;BME280_temperature;BME280_humidity;BME280_pressure;Samples;Min_cycle;Max_cycle;Signal;HPM_P1;HPM_P2
2023/05/28 00:00:42;;;;;;;;;8.67;8.67;;;;;21.79;40.32;101316.03;5019573;28;45503;-78
2023/05/28 00:03:08;;;;;;;;;13.33;10.33;;;;;21.59;40.75;101290.06;5019441;28;46222;-77
2023/05/28 00:05:34;;;;;;;;;13.33;8.00;;;;;21.58;40.60;101289.22;5014864;28;45359;-79
2023/05/28 00:08:00;;;;;;;;;10.67;9.67;;;;;21.38;40.59;101265.03;4998301;28;45476;-78
2023/05/28 00:10:28;;;;;;;;;10.33;8.00;;;;;21.71;40.57;101315.44;5016418;28;45858;-78
2023/05/28 00:12:54;;;;;;;;;9.33;8.33;;;;;21.54;40.45;101281.38;5017250;28;45842;-78
2023/05/28 00:15:21;;;;;;;;;10.00;9.00;;;;;21.53;40.60;101284.97;4998723;28;45493;-77
2023/05/28 00:17:46;;;;;;;;;10.67;8.67;;;;;21.34;40.75;101263.41;5015089;28;45382;-76
2023/05/28 00:20:12;;;;;;;;;12.33;9.00;;;;;21.51;40.61;101278.81;5001389;28;45572;-77
2023/05/28 00:22:39;;;;;;;;;6.67;6.67;;;;;21.57;40.80;101299.94;5019429;28;45527;-77
2023/05/28 00:25:05;;;;;;;;;8.00;8.00;;;;;21.15;40.72;101234.72;5017540;28;45487;-77
2023/05/28 00:27:31;;;;;;;;;10.67;9.67;;;;;21.40;40.89;101276.53;5015310;28;45791;-76
2023/05/28 00:29:57;;;;;;;;;9.00;9.00;;;;;21.55;41.17;101299.13;5019212;28;45388;-74
2023/05/28 00:32:23;;;;;;;;;5.33;4.67;;;;;21.52;41.25;101296.53;5019020;28;46484;-78
2023/05/28 00:34:48;;;;;;;;;10.33;6.33;;;;;21.57;41.38;101308.81;5018795;28;45534;-78
2023/05/28 00:37:14;;;;;;;;;11.00;9.33;;;;;21.04;41.32;101214.69;5017111;28;45440;-77
2023/05/28 00:39:40;;;;;;;;;10.67;8.00;;;;;21.52;41.50;101302.78;4997298;28;45464;-77
2023/05/28 00:42:08;;;;;;;;;10.00;9.33;;;;;20.98;41.67;101222.91;5017075;28;46384;-77
2023/05/28 00:44:34;;;;;;;;;10.67;9.00;;;;;21.49;41.81;101304.66;5000768;28;45549;-76
2023/05/28 00:47:02;;;;;;;;;14.33;10.33;;;;;21.45;42.04;101301.25;4996977;28;45819;-78
2023/05/28 00:49:28;;;;;;;;;9.67;8.67;;;;;21.18;41.97;101263.03;5014620;28;45555;-77
2023/05/28 00:51:56;;;;;;;;;11.00;10.33;;;;;21.04;42.14;101243.97;4996377;28;47723;-76
2023/05/28 00:54:23;;;;;;;;;13.00;10.00;;;;;21.28;42.33;101296.41;4996788;28;45477;-77
2023/05/28 00:56:48;;;;;;;;;13.33;10.67;;;;;21.37;42.37;101303.25;4996857;28;45685;-77
2023/05/28 00:59:16;;;;;;;;;14.67;10.33;;;;;21.34;42.80;101308.69;5014499;28;45579;-78
2023/05/28 01:01:42;;;;;;;;;12.00;10.00;;;;;20.81;43.05;101226.09;4996462;28;47083;-77
2023/05/28 01:04:08;;;;;;;;;12.67;11.67;;;;;21.15;42.96;101285.31;5014468;28;45400;-77
2023/05/28 01:06:37;;;;;;;;;9.67;9.00;;;;;21.23;43.55;101303.69;5000764;28;45915;-78
2023/05/28 01:09:07;;;;;;;;;10.00;9.33;;;;;20.99;43.62;101280.56;5018921;28;45392;-78
2023/05/28 01:11:35;;;;;;;;;12.00;10.33;;;;;20.75;43.48;101244.03;5018063;28;46000;-79
2023/05/28 01:14:02;;;;;;;;;17.67;11.67;;;;;20.96;44.08;101285.06;5000038;28;45457;-78
2023/05/28 01:16:28;;;;;;;;;10.67;8.00;;;;;20.80;44.02;101269.63;4996206;28;45567;-77
2023/05/28 01:18:55;;;;;;;;;9.67;9.00;;;;;21.09;44.24;101327.25;5013672;28;45564;-78
2023/05/28 01:21:23;;;;;;;;;20.00;12.67;;;;;21.05;44.40;101309.66;4997090;28;47784;-80
2023/05/28 01:23:51;;;;;;;;;17.33;13.00;;;;;21.01;44.74;101316.88;5015476;28;45530;-79
2023/05/28 01:26:17;;;;;;;;;11.33;10.67;;;;;20.62;44.70;101258.66;4995406;28;45667;-78
2023/05/28 01:28:48;;;;;;;;;15.00;11.33;;;;;20.88;44.58;101304.84;5011847;28;45926;-79
2023/05/28 01:31:22;;;;;;;;;13.67;10.00;;;;;20.83;44.99;101299.66;5010769;28;45409;-77
2023/05/28 01:33:47;;;;;;;;;15.67;10.67;;;;;20.49;44.95;101246.59;5015719;28;45388;-79
2023/05/28 01:36:21;;;;;;;;;13.67;10.00;;;;;20.88;45.29;101318.16;4994339;28;45576;-80
2023/05/28 01:38:49;;;;;;;;;11.33;11.00;;;;;20.35;45.25;101239.03;5016031;28;45802;-79
2023/05/28 01:41:16;;;;;;;;;14.33;12.00;;;;;20.85;45.08;101323.59;5013854;28;46309;-78
2023/05/28 01:43:43;;;;;;;;;14.67;11.33;;;;;20.31;45.73;101248.94;5013374;28;45333;-78
2023/05/28 01:46:09;;;;;;;;;18.67;13.67;;;;;20.81;45.87;101343.25;5014033;28;45516;-78
2023/05/28 01:48:36;;;;;;;;;10.67;9.67;;;;;20.44;45.85;101283.13;5015330;28;45481;-78
2023/05/28 01:51:03;;;;;;;;;13.67;11.67;;;;;20.62;45.89;101311.00;4994601;28;46456;-80
2023/05/28 01:53:28;;;;;;;;;13.00;13.00;;;;;20.22;45.86;101246.53;4998545;28;45326;-78
2023/05/28 01:55:55;;;;;;;;;10.33;10.00;;;;;20.62;46.02;101314.53;5016790;28;45526;-78
2023/05/28 01:58:22;;;;;;;;;13.00;11.33;;;;;20.70;46.11;101323.16;5013587;28;45657;-78
2023/05/28 02:01:02;;;;;;;;;16.00;11.67;;;;;20.19;45.91;101243.09;5013734;28;46498;-79
2023/05/28 02:03:28;;;;;;;;;13.33;11.33;;;;;20.67;46.41;101325.91;5017594;28;45364;-78
2023/05/28 02:05:54;;;;;;;;;11.67;9.33;;;;;19.94;46.58;101197.75;4999844;28;45992;-78
2023/05/28 02:08:20;;;;;;;;;12.67;11.33;;;;;20.23;46.35;101252.72;4999944;28;45314;-77
2023/05/28 02:10:45;;;;;;;;;13.33;11.33;;;;;20.45;46.38;101288.38;5016929;28;45501;-78
2023/05/28 02:13:11;;;;;;;;;15.00;11.00;;;;;20.29;46.72;101274.69;5013425;28;45399;-78
2023/05/28 02:15:37;;;;;;;;;11.00;11.00;;;;;19.99;46.71;101239.22;5013050;28;45638;-77
2023/05/28 02:18:02;;;;;;;;;14.33;11.00;;;;;20.52;46.80;101331.66;5013659;28;45672;-77
2023/05/28 02:20:28;;;;;;;;;14.67;11.00;;;;;20.37;46.49;101310.84;5014024;28;46132;-80
2023/05/28 02:22:53;;;;;;;;;13.33;11.00;;;;;20.37;46.97;101308.19;4995578;28;45778;-77
2023/05/28 02:25:20;;;;;;;;;16.67;12.00;;;;;20.45;46.80;101322.97;5017149;28;45458;-79
2023/05/28 02:27:46;;;;;;;;;9.33;9.33;;;;;20.33;46.90;101320.69;5017939;28;45527;-79
2023/05/28 02:30:13;;;;;;;;;11.67;9.67;;;;;19.72;47.09;101209.00;4999432;28;47037;-80
2023/05/28 02:32:39;;;;;;;;;12.67;9.67;;;;;20.30;47.16;101311.00;5014754;28;45356;-79
2023/05/28 02:35:05;;;;;;;;;13.33;9.33;;;;;19.89;47.00;101251.06;4995091;28;45489;-77
2023/05/28 02:37:31;;;;;;;;;15.00;10.67;;;;;20.19;46.97;101306.91;5013098;28;45526;-79
2023/05/28 02:39:57;;;;;;;;;14.33;11.67;;;;;20.39;47.11;101331.16;5012927;28;46639;-79
2023/05/28 02:42:24;;;;;;;;;11.67;9.33;;;;;20.14;47.24;101293.75;5013089;28;45459;-78
2023/05/28 02:44:50;;;;;;;;;16.00;13.33;;;;;20.27;47.14;101315.56;5012814;28;45530;-79
2023/05/28 02:47:19;;;;;;;;;13.33;10.67;;;;;20.16;47.31;101309.66;5013089;28;45511;-76
2023/05/28 02:49:45;;;;;;;;;13.33;11.00;;;;;19.85;47.34;101257.38;5016065;28;45423;-78
2023/05/28 02:52:11;;;;;;;;;14.33;12.67;;;;;20.31;47.25;101336.72;5016658;28;45170;-78
2023/05/28 02:54:37;;;;;;;;;9.67;9.33;;;;;20.23;47.28;101311.25;4999357;28;45254;-79
2023/05/28 02:57:02;;;;;;;;;16.00;11.33;;;;;20.24;47.12;101310.31;5017068;28;45345;-78
2023/05/28 02:59:28;;;;;;;;;11.33;9.67;;;;;20.12;47.24;101298.22;5016081;28;45409;-79
2023/05/28 03:01:54;;;;;;;;;14.33;11.67;;;;;20.27;47.45;101329.72;4997833;28;45545;-77
2023/05/28 03:04:20;;;;;;;;;14.67;11.33;;;;;20.25;47.45;101331.56;5015912;28;45479;-78
2023/05/28 03:06:45;;;;;;;;;15.33;11.00;;;;;20.04;47.31;101305.56;5019706;28;45342;-77
2023/05/28 03:09:11;;;;;;;;;14.67;12.00;;;;;20.23;47.66;101335.19;5020394;28;46020;-77
2023/05/28 03:11:36;;;;;;;;;10.67;10.67;;;;;20.04;47.61;101290.47;5020137;28;45502;-76
2023/05/28 03:14:02;;;;;;;;;15.33;10.33;;;;;20.12;47.53;101311.53;5020115;28;45513;-77
2023/05/28 03:16:28;;;;;;;;;14.00;11.00;;;;;19.87;47.62;101269.69;5020833;28;45301;-77
2023/05/28 03:18:53;;;;;;;;;13.67;10.33;;;;;20.17;47.79;101322.94;5020513;28;46323;-77
2023/05/28 03:21:19;;;;;;;;;14.67;12.00;;;;;19.81;47.59;101272.53;5016454;28;45563;-77
2023/05/28 03:23:45;;;;;;;;;10.00;10.00;;;;;20.08;47.76;101310.75;4998904;28;45524;-79
2023/05/28 03:26:12;;;;;;;;;16.67;13.67;;;;;19.80;47.82;101262.81;5000127;28;45804;-76
2023/05/28 03:28:37;;;;;;;;;15.00;13.67;;;;;19.44;47.37;101209.75;4999610;28;45618;-77
2023/05/28 03:31:03;;;;;;;;;14.67;13.00;;;;;20.07;47.96;101316.13;4997772;28;45492;-78
2023/05/28 03:33:29;;;;;;;;;13.00;13.00;;;;;19.70;47.84;101248.91;5015889;28;45894;-79
2023/05/28 03:35:55;;;;;;;;;14.33;13.00;;;;;19.84;47.67;101283.09;5016174;28;45372;-81
2023/05/28 03:38:21;;;;;;;;;15.33;11.33;;;;;19.91;47.84;101292.63;5015784;28;45490;-80
2023/05/28 03:40:46;;;;;;;;;13.00;11.00;;;;;19.82;48.24;101284.03;5015728;28;45444;-80
2023/05/28 03:43:12;;;;;;;;;14.33;11.67;;;;;19.66;47.93;101256.97;5015709;28;45362;-79
2023/05/28 03:45:37;;;;;;;;;11.67;10.67;;;;;19.62;47.88;101252.66;5015221;28;45531;-80
2023/05/28 03:48:03;;;;;;;;;14.67;11.00;;;;;20.00;48.07;101322.53;5018367;28;45686;-80
2023/05/28 03:50:29;;;;;;;;;13.00;12.00;;;;;19.52;48.37;101245.84;5019542;28;45260;-78
2023/05/28 03:52:54;;;;;;;;;14.00;14.00;;;;;19.61;48.11;101254.44;5018672;28;45425;-78
2023/05/28 03:55:20;;;;;;;;;18.33;9.33;;;;;19.95;48.38;101321.78;5015329;28;45443;-78
2023/05/28 03:57:46;;;;;;;;;15.00;14.00;;;;;19.93;48.32;101321.81;5017162;28;45954;-80
2023/05/28 04:00:13;;;;;;;;;12.67;12.67;;;;;19.88;48.00;101319.31;5019770;28;45376;-78
2023/05/28 04:02:39;;;;;;;;;13.67;12.33;;;;;19.34;48.26;101232.16;5016772;28;45520;-77
2023/05/28 04:05:05;;;;;;;;;11.33;11.33;;;;;19.41;48.16;101248.78;5016119;28;45522;-78
2023/05/28 04:07:31;;;;;;;;;18.00;14.00;;;;;19.39;48.36;101250.63;5016247;28;46754;-77
2023/05/28 04:09:56;;;;;;;;;13.33;13.33;;;;;19.47;48.42;101269.88;5017012;28;45582;-76
2023/05/28 04:12:22;;;;;;;;;15.00;11.67;;;;;19.81;48.37;101328.38;4996682;28;45532;-78
2023/05/28 04:14:47;;;;;;;;;14.00;14.00;;;;;19.26;48.42;101250.06;5017891;28;45463;-77
2023/05/28 04:17:13;;;;;;;;;14.00;11.67;;;;;19.80;48.40;101328.41;5019663;28;46400;-77
2023/05/28 04:19:43;;;;;;;;;12.33;11.67;;;;;19.48;48.45;101284.91;5019296;28;45352;-77
2023/05/28 04:22:09;;;;;;;;;14.50;11.50;;;;;19.83;48.50;101337.13;5013324;28;45489;-78
2023/05/28 04:24:35;;;;;;;;;15.00;13.00;;;;;19.82;48.51;101338.06;4997701;28;45551;-76
2023/05/28 04:27:00;;;;;;;;;11.00;11.00;;;;;19.58;48.53;101293.53;5014878;28;45429;-78
2023/05/28 04:29:28;;;;;;;;;14.67;12.33;;;;;19.81;48.50;101331.03;4996915;28;45468;-78
2023/05/28 04:31:54;;;;;;;;;18.33;11.67;;;;;19.80;48.43;101339.88;4996745;28;45822;-76
2023/05/28 04:34:20;;;;;;;;;14.00;14.00;;;;;19.30;48.56;101250.88;5000483;28;45591;-76
2023/05/28 04:36:48;;;;;;;;;17.33;14.67;;;;;19.70;48.40;101312.69;5018822;28;46021;-77
2023/05/28 04:39:14;;;;;;;;;20.00;15.00;;;;;19.64;48.33;101309.28;5017481;28;45599;-79
2023/05/28 04:41:40;;;;;;;;;18.67;14.67;;;;;19.45;48.21;101272.56;5014469;28;45507;-78
2023/05/28 04:44:06;;;;;;;;;20.67;16.33;;;;;19.44;48.42;101269.97;5017024;28;45400;-77
2023/05/28 04:46:33;;;;;;;;;13.67;12.00;;;;;19.46;48.39;101269.00;5018450;28;46004;-81
2023/05/28 04:48:59;;;;;;;;;17.00;13.00;;;;;19.92;48.22;101344.00;5018383;28;45526;-78
2023/05/28 04:51:25;;;;;;;;;14.00;13.00;;;;;19.61;48.34;101307.59;4996855;28;45466;-78
2023/05/28 04:53:50;;;;;;;;;16.00;13.33;;;;;19.51;47.95;101279.53;5014123;28;45590;-77
2023/05/28 04:56:16;;;;;;;;;16.33;12.33;;;;;19.95;48.42;101351.88;4995795;28;48066;-77
2023/05/28 04:58:46;;;;;;;;;14.00;11.67;;;;;19.96;48.13;101353.66;5014402;28;45439;-77
2023/05/28 05:01:14;;;;;;;;;16.67;13.67;;;;;19.99;48.34;101355.34;5014100;28;46295;-78
2023/05/28 05:03:40;;;;;;;;;15.33;14.33;;;;;19.56;47.96;101287.38;5014902;28;45591;-78
2023/05/28 05:06:07;;;;;;;;;17.33;12.67;;;;;19.83;47.81;101317.66;5017997;28;45763;-78
2023/05/28 05:08:32;;;;;;;;;12.33;11.67;;;;;19.91;47.79;101335.16;4997948;28;45473;-79
2023/05/28 05:11:00;;;;;;;;;19.33;14.67;;;;;20.04;47.94;101359.63;5014399;28;45423;-77
2023/05/28 05:13:26;;;;;;;;;16.67;11.67;;;;;19.56;47.79;101264.31;5014073;28;45447;-78
2023/05/28 05:15:51;;;;;;;;;14.33;14.33;;;;;19.27;47.79;101214.66;4996006;28;47652;-79
2023/05/28 05:18:17;;;;;;;;;17.67;14.00;;;;;20.02;47.88;101341.97;5014031;28;45368;-80
2023/05/28 05:20:43;;;;;;;;;14.67;13.00;;;;;19.79;47.32;101303.59;4995983;28;45458;-78
2023/05/28 05:23:09;;;;;;;;;14.33;13.67;;;;;20.05;47.56;101342.78;5013744;28;45696;-79
2023/05/28 05:25:34;;;;;;;;;20.33;15.00;;;;;19.97;47.51;101311.97;5013620;28;45653;-78
2023/05/28 05:28:00;;;;;;;;;13.00;11.67;;;;;20.23;47.34;101359.97;4995795;28;46042;-79
2023/05/28 05:30:25;;;;;;;;;10.33;10.33;;;;;20.26;47.18;101365.25;4996144;28;45583;-78
2023/05/28 05:32:51;;;;;;;;;13.67;12.33;;;;;20.20;47.44;101346.78;5013694;28;45485;-78
2023/05/28 05:35:16;;;;;;;;;17.67;12.00;;;;;19.80;47.06;101273.44;5013601;28;46272;-78
2023/05/28 05:37:42;;;;;;;;;20.33;15.67;;;;;19.46;47.24;101205.25;5015547;28;45318;-79
2023/05/28 05:40:09;;;;;;;;;12.67;10.33;;;;;19.81;47.05;101264.56;4997371;28;45426;-78
2023/05/28 05:42:35;;;;;;;;;14.67;12.67;;;;;20.40;46.91;101367.47;5013730;28;45772;-78
2023/05/28 05:45:00;;;;;;;;;19.00;12.33;;;;;19.65;47.01;101236.66;5013188;28;45678;-79
2023/05/28 05:47:26;;;;;;;;;14.67;12.33;;;;;20.48;46.77;101372.59;5013816;28;45436;-78
2023/05/28 05:49:52;;;;;;;;;18.67;12.00;;;;;20.47;46.65;101368.19;5000463;28;45424;-79
2023/05/28 05:52:17;;;;;;;;;15.67;14.00;;;;;20.49;46.61;101377.84;5016389;28;45472;-80
2023/05/28 05:54:43;;;;;;;;;16.00;14.67;;;;;20.12;46.35;101295.56;4995438;28;45502;-75
2023/05/28 05:57:09;;;;;;;;;17.00;14.33;;;;;20.18;46.54;101294.53;5016507;28;45447;-79
2023/05/28 05:59:35;;;;;;;;;15.00;13.33;;;;;20.37;46.31;101309.03;5013438;28;46062;-80
2023/05/28 06:02:00;;;;;;;;;15.33;12.33;;;;;20.64;46.10;101360.59;4995469;28;45554;-76
2023/05/28 06:04:31;;;;;;;;;17.33;14.00;;;;;20.37;46.22;101300.19;5014721;28;46428;-79
2023/05/28 06:06:57;;;;;;;;;18.33;14.00;;;;;20.24;46.11;101273.97;5015830;28;45479;-78
2023/05/28 06:09:24;;;;;;;;;19.33;13.67;;;;;20.56;46.34;101317.38;5013842;28;45791;-77
2023/05/28 06:11:49;;;;;;;;;14.00;13.67;;;;;20.61;45.88;101315.44;5013652;28;45715;-76
2023/05/28 06:14:15;;;;;;;;;16.33;11.67;;;;;20.96;51.25;101348.97;5013246;28;45475;-75
2023/05/28 06:16:41;;;;;;;;;18.67;11.00;;;;;20.97;46.28;101333.84;5014012;28;45530;-75
2023/05/28 06:19:07;;;;;;;;;19.33;17.00;;;;;20.95;45.67;101325.03;5013041;28;45474;-74
2023/05/28 06:21:33;;;;;;;;;18.00;14.00;;;;;21.11;45.33;101344.06;5012781;28;45364;-73
2023/05/28 06:23:58;;;;;;;;;22.33;15.00;;;;;21.13;45.21;101347.56;5013320;28;45867;-75
2023/05/28 06:26:24;;;;;;;;;17.00;13.00;;;;;21.05;45.18;101326.50;4995149;28;45563;-74
2023/05/28 06:28:50;;;;;;;;;16.33;13.33;;;;;21.25;44.96;101349.81;5016420;28;45547;-73
2023/05/28 06:31:16;;;;;;;;;15.67;14.67;;;;;21.26;44.74;101346.25;5017727;28;45570;-76
2023/05/28 06:33:42;;;;;;;;;20.33;15.67;;;;;21.34;44.57;101353.97;5015469;28;45411;-74
2023/05/28 06:36:08;;;;;;;;;16.67;15.67;;;;;21.39;44.72;101352.03;4997939;28;45773;-74
2023/05/28 06:38:33;;;;;;;;;18.00;13.67;;;;;21.42;44.59;101349.28;5017929;28;45436;-74
2023/05/28 06:40:59;;;;;;;;;17.33;14.00;;;;;21.44;44.37;101336.78;5020848;28;45408;-74
2023/05/28 06:43:28;;;;;;;;;17.33;16.00;;;;;21.41;44.19;101320.91;5016346;28;46377;-77
2023/05/28 06:45:56;;;;;;;;;26.67;15.67;;;;;21.20;44.21;101287.84;5016586;28;45594;-74
2023/05/28 06:48:22;;;;;;;;;17.33;10.33;;;;;21.44;44.17;101314.59;5016210;28;45457;-76
2023/05/28 06:50:48;;;;;;;;;13.67;11.33;;;;;21.56;43.89;101336.38;5018442;28;45425;-77
2023/05/28 06:53:13;;;;;;;;;19.67;16.00;;;;;21.74;43.87;101350.00;4999017;28;45776;-76
2023/05/28 06:55:43;;;;;;;;;16.33;14.33;;;;;21.71;43.87;101335.00;5016071;28;45388;-74
2023/05/28 06:58:08;;;;;;;;;14.67;13.00;;;;;21.69;43.95;101319.94;5016481;28;45447;-75
2023/05/28 07:00:35;;;;;;;;;17.00;14.00;;;;;21.93;43.78;101352.91;5015954;28;45433;-74
2023/05/28 07:03:00;;;;;;;;;23.33;15.33;;;;;21.95;43.54;101346.59;5016158;28;46519;-74
2023/05/28 07:05:26;;;;;;;;;17.67;13.33;;;;;22.06;43.54;101355.97;5015137;28;45544;-74
2023/05/28 07:07:52;;;;;;;;;18.33;13.00;;;;;21.91;43.27;101323.59;5015821;28;45559;-74
2023/05/28 07:10:18;;;;;;;;;16.67;12.33;;;;;22.16;42.88;101355.59;5015869;28;45499;-75
2023/05/28 07:12:44;;;;;;;;;12.33;12.33;;;;;22.03;43.03;101331.16;5015351;28;46108;-74
2023/05/28 07:15:15;;;;;;;;;17.00;13.00;;;;;22.15;42.80;101336.97;5015623;28;45871;-74
2023/05/28 07:17:43;;;;;;;;;17.00;13.67;;;;;22.18;42.68;101342.19;5017667;28;45364;-76
2023/05/28 07:20:11;;;;;;;;;17.67;15.00;;;;;22.11;42.61;101325.53;4999613;28;45445;-74
2023/05/28 07:22:36;;;;;;;;;15.67;13.67;;;;;22.31;42.60;101342.66;4995401;28;48068;-74
2023/05/28 07:25:02;;;;;;;;;15.67;13.00;;;;;22.42;42.66;101353.78;5015167;28;45803;-75
2023/05/28 07:27:28;;;;;;;;;17.33;13.00;;;;;22.46;42.44;101354.56;5017988;28;45451;-73
2023/05/28 07:29:54;;;;;;;;;12.67;9.67;;;;;22.46;42.13;101355.41;5014850;28;45789;-74
2023/05/28 07:32:20;;;;;;;;;12.00;11.00;;;;;22.48;42.10;101340.22;4993871;28;47082;-75
2023/05/28 07:34:46;;;;;;;;;17.33;15.00;;;;;22.61;41.96;101360.19;5015069;28;45582;-76
2023/05/28 07:37:12;;;;;;;;;19.67;14.67;;;;;22.44;41.84;101314.56;4997738;28;45510;-73
2023/05/28 07:39:38;;;;;;;;;16.33;12.67;;;;;22.67;41.85;101355.53;5015153;28;45538;-74
2023/05/28 07:42:03;;;;;;;;;22.67;17.00;;;;;22.70;41.85;101356.28;4994834;28;47964;-75
2023/05/28 07:44:29;;;;;;;;;21.00;15.33;;;;;22.64;41.95;101351.19;5015295;28;45764;-73
2023/05/28 07:46:55;;;;;;;;;18.00;15.67;;;;;22.26;42.00;101289.47;5014776;28;45717;-75
2023/05/28 07:49:21;;;;;;;;;19.33;15.33;;;;;22.59;41.95;101358.47;5014969;28;45462;-74
2023/05/28 07:51:46;;;;;;;;;15.33;13.67;;;;;22.62;41.96;101353.91;5015016;28;46437;-74
2023/05/28 07:54:12;;;;;;;;;16.33;13.00;;;;;22.63;41.96;101346.75;5013852;28;45415;-73
2023/05/28 07:56:38;;;;;;;;;13.67;13.33;;;;;22.53;41.65;101318.69;5014815;28;45373;-73
2023/05/28 07:59:04;;;;;;;;;14.50;11.00;;;;;22.81;41.91;101351.41;4999281;28;45472;-74
2023/05/28 08:01:30;;;;;;;;;17.33;14.33;;;;;22.88;41.55;101344.00;4999343;28;47045;-75
2023/05/28 08:03:56;;;;;;;;;17.33;14.67;;;;;22.92;41.60;101345.63;4999496;28;45293;-74
2023/05/28 08:06:22;;;;;;;;;16.00;12.00;;;;;22.99;41.50;101346.28;5001156;28;45663;-74
2023/05/28 08:08:48;;;;;;;;;14.67;12.33;;;;;23.05;41.24;101340.69;5015134;28;45464;-73
2023/05/28 08:11:14;;;;;;;;;19.67;13.67;;;;;23.11;41.15;101340.44;4996221;28;46514;-77
2023/05/28 08:13:42;;;;;;;;;21.00;16.33;;;;;22.84;41.23;101288.97;4996570;28;45617;-74
2023/05/28 08:16:12;;;;;;;;;25.33;18.00;;;;;22.46;41.32;101224.63;5014187;28;45547;-74
2023/05/28 08:18:39;;;;;;;;;19.00;16.33;;;;;22.34;41.38;101209.97;5014908;28;45451;-77
2023/05/28 08:21:06;;;;;;;;;22.00;16.00;;;;;23.12;41.33;101334.16;4996640;28;45438;-73
2023/05/28 08:23:34;;;;;;;;;18.67;17.33;;;;;23.20;40.90;101340.06;5014616;28;45459;-76
2023/05/28 08:26:02;;;;;;;;;18.33;13.00;;;;;23.22;40.96;101335.53;5016054;28;45795;-74
2023/05/28 08:28:28;;;;;;;;;10.00;5.00;;;;;23.06;41.30;101294.34;5019501;28;45436;-74
2023/05/28 08:30:54;;;;;;;;;12.67;12.00;;;;;23.16;40.68;101300.16;5016588;28;45511;-74
2023/05/28 08:33:19;;;;;;;;;17.00;14.00;;;;;23.02;40.89;101274.03;5014991;28;45845;-72
2023/05/28 08:35:45;;;;;;;;;20.33;15.67;;;;;23.44;40.59;101338.19;5014636;28;45620;-75
2023/05/28 08:38:13;;;;;;;;;17.33;15.67;;;;;23.52;41.10;101326.31;4997324;28;45534;-76
2023/05/28 08:40:43;;;;;;;;;19.67;17.33;;;;;23.05;41.41;101250.72;5015710;28;45609;-74
2023/05/28 08:43:08;;;;;;;;;23.33;14.00;;;;;23.15;41.45;101261.88;5018867;28;45424;-74
2023/05/28 08:45:35;;;;;;;;;12.00;12.00;;;;;23.55;41.79;101324.34;5015989;28;45329;-76
2023/05/28 08:48:01;;;;;;;;;13.67;9.67;;;;;23.69;40.91;101324.63;5014219;28;45508;-75
2023/05/28 08:50:29;;;;;;;;;14.00;11.00;;;;;23.65;40.61;101298.94;5017780;28;46042;-74
2023/05/28 08:53:01;;;;;;;;;15.33;11.67;;;;;23.71;41.24;101300.50;4996976;28;45439;-75
2023/05/28 08:55:27;;;;;;;;;17.33;14.33;;;;;23.74;40.90;101292.34;4996841;28;45624;-78
2023/05/28 08:57:54;;;;;;;;;20.67;14.00;;;;;23.92;40.08;101322.78;5013742;28;45584;-78
2023/05/28 09:00:21;;;;;;;;;14.33;14.33;;;;;23.89;39.90;101309.53;5014858;28;46511;-78
2023/05/28 09:02:47;;;;;;;;;21.33;16.00;;;;;23.37;39.82;101213.75;5018075;28;45503;-77
2023/05/28 09:05:12;;;;;;;;;19.33;16.00;;;;;23.31;39.12;101229.19;5014708;28;45683;-77
2023/05/28 09:07:38;;;;;;;;;19.33;15.67;;;;;23.58;40.13;101273.41;5014813;28;45392;-78
2023/05/28 09:10:06;;;;;;;;;16.33;14.00;;;;;23.82;40.28;101305.38;5014440;28;46726;-78
2023/05/28 09:12:32;;;;;;;;;18.00;14.00;;;;;23.73;40.38;101274.56;5016685;28;45311;-77
2023/05/28 09:14:59;;;;;;;;;16.33;13.00;;;;;23.83;39.56;101280.41;5018305;28;45380;-81
2023/05/28 09:17:39;;;;;;;;;13.67;11.00;;;;;23.57;40.14;101236.91;5015789;28;45594;-81
2023/05/28 09:20:14;;;;;;;;;15.00;13.00;;;;;23.97;40.17;101303.84;5014058;28;46243;-77
2023/05/28 09:22:40;;;;;;;;;17.33;12.67;;;;;23.16;40.58;101166.56;5014602;28;45603;-78
2023/05/28 09:25:07;;;;;;;;;13.33;11.67;;;;;23.32;40.36;101196.16;5016639;28;45293;-78
2023/05/28 09:27:36;;;;;;;;;14.67;11.67;;;;;23.98;40.99;101297.56;5020255;28;45479;-79
2023/05/28 09:30:05;;;;;;;;;13.67;13.67;;;;;24.05;40.15;101291.84;5007230;28;45978;-80
2023/05/28 09:32:33;;;;;;;;;17.67;13.33;;;;;23.85;39.54;101238.41;4993111;28;45557;-81
2023/05/28 09:34:59;;;;;;;;;14.67;12.00;;;;;24.23;39.32;101289.28;4994287;28;45458;-78
2023/05/28 09:37:28;;;;;;;;;21.67;14.33;;;;;24.20;39.59;101271.53;5010889;28;45479;-77
2023/05/28 09:40:16;;;;;;;;;14.00;12.67;;;;;24.33;39.27;101280.75;5012472;28;45549;-76
2023/05/28 09:42:42;;;;;;;;;13.00;10.67;;;;;24.37;39.10;101289.50;4994144;28;45849;-74
2023/05/28 09:45:09;;;;;;;;;12.00;12.00;;;;;24.40;39.20;101284.00;5010473;28;45846;-73
2023/05/28 09:47:45;;;;;;;;;9.00;8.67;;;;;24.25;39.06;101244.56;5010839;28;45545;-74
2023/05/28 09:50:14;;;;;;;;;10.67;10.67;;;;;24.41;38.17;101268.81;5011027;28;46039;-74
2023/05/28 09:52:43;;;;;;;;;15.00;12.67;;;;;24.31;38.29;101250.50;5010365;28;45874;-72
2023/05/28 09:55:15;;;;;;;;;12.00;11.33;;;;;24.58;37.81;101282.28;4993795;28;45453;-73
2023/05/28 09:57:46;;;;;;;;;15.33;11.33;;;;;24.33;37.99;101227.19;5015763;28;45834;-74
2023/05/28 10:00:22;;;;;;;;;11.67;11.00;;;;;24.68;37.89;101272.88;5015286;28;46606;-76
2023/05/28 10:02:59;;;;;;;;;11.33;11.00;;;;;24.73;37.85;101264.63;4988079;28;45688;-77
2023/05/28 10:05:31;;;;;;;;;15.00;14.33;;;;;24.79;37.03;101266.97;4993333;28;45538;-74
2023/05/28 10:08:00;;;;;;;;;11.67;10.67;;;;;24.85;36.84;101266.69;4995025;28;45542;-73
2023/05/28 10:10:28;;;;;;;;;13.00;10.00;;;;;24.86;35.39;101271.09;4999001;28;46371;-73
2023/05/28 10:12:56;;;;;;;;;8.67;8.33;;;;;24.82;35.79;101252.56;4998651;28;45610;-73
2023/05/28 10:15:23;;;;;;;;;9.33;9.33;;;;;24.93;35.80;101261.81;4998254;28;45548;-81
2023/05/28 10:17:50;;;;;;;;;15.00;10.67;;;;;24.96;34.41;101266.16;5016484;28;45448;-77
2023/05/28 10:20:18;;;;;;;;;12.33;10.33;;;;;25.00;34.76;101254.34;5015640;28;45417;-76
2023/05/28 10:22:44;;;;;;;;;12.00;11.00;;;;;25.05;34.28;101259.47;5015401;28;45451;-75
2023/05/28 10:25:11;;;;;;;;;15.33;10.67;;;;;25.06;33.93;101261.22;5001138;28;45412;-77
2023/05/28 10:27:44;;;;;;;;;12.67;10.00;;;;;25.06;34.68;101242.47;5016519;28;45996;-77
2023/05/28 10:30:12;;;;;;;;;12.00;8.67;;;;;25.22;34.92;101255.97;4998100;28;45574;-78
2023/05/28 10:32:43;;;;;;;;;11.00;10.33;;;;;25.01;34.96;101196.25;5001980;28;45713;-76
2023/05/28 10:35:12;;;;;;;;;14.33;12.00;;;;;25.04;34.43;101193.44;5003094;28;45435;-80
2023/05/28 10:37:42;;;;;;;;;16.00;13.00;;;;;25.39;34.29;101254.16;5021717;28;45518;-79
2023/05/28 10:40:21;;;;;;;;;16.33;12.67;;;;;25.35;33.87;101238.31;5021135;28;45322;-77
2023/05/28 10:42:47;;;;;;;;;16.33;13.33;;;;;25.45;33.49;101236.00;5017565;28;45381;-76
2023/05/28 10:45:12;;;;;;;;;9.00;8.00;;;;;25.56;32.35;101239.00;4999325;28;45522;-79
2023/05/28 10:47:52;;;;;;;;;13.33;13.00;;;;;25.60;32.02;101248.59;5016647;28;45368;-77
2023/05/28 10:50:19;;;;;;;;;11.33;10.67;;;;;25.58;31.92;101224.56;5000172;28;47484;-78
2023/05/28 10:53:06;;;;;;;;;12.67;12.33;;;;;25.82;32.38;101253.72;5001762;28;45499;-82
2023/05/28 10:55:49;;;;;;;;;13.67;12.00;;;;;25.91;31.46;101239.84;5019881;28;45663;-74
2023/05/28 10:58:32;;;;;;;;;13.33;12.00;;;;;25.93;31.45;101239.72;5019567;28;45389;-71
2023/05/28 11:01:09;;;;;;;;;9.33;9.33;;;;;25.73;31.30;101225.56;5020842;28;46648;-70
2023/05/28 11:03:45;;;;;;;;;10.00;10.00;;;;;25.76;32.54;101240.59;5020993;28;45399;-71
2023/05/28 11:06:15;;;;;;;;;12.33;10.33;;;;;25.77;31.98;101232.50;5016850;28;45474;-74
2023/05/28 11:08:43;;;;;;;;;14.67;10.00;;;;;25.84;33.00;101218.72;5018061;28;45597;-72
2023/05/28 11:11:11;;;;;;;;;15.67;15.67;;;;;26.14;32.74;101243.91;5017528;28;46717;-71